Ringling, Montana
Current Conditions -  °F | °C
As of 10:56 AM on Monday 22 Dec 2014 (Local Time) from KBZN Reporting Station
Overcast Overcast  
Wind Chill: 33°   Ceiling: 11000
Heat Index: 33°   Visibility: 10mi
Dew Point: 25°   Wind: 0mph
Humidity: 72%   Direction: NA
Pressure: 29.92"   Gusts: NA
Location:  46.27°N, 110.81°W
Report Text: KBZN 221756Z 00000KT 10SM OVC110 01/M04 A2992 RMK AO2 SLP161 T00061039 10011 21022 53014
Loading
Personal Weather Stations






























Interactive Weather Map New forecast layout! Learn more

10-Day Weather Forecast

Advertisements
Track Severe Weather on mobile